createdAt,value
2019-05-07T00:01:23.638Z,1.70
2019-05-07T00:03:55.011Z,1.40
2019-05-07T00:06:25.387Z,1.20
2019-05-07T00:08:55.519Z,1.67
2019-05-07T00:11:26.623Z,1.27
2019-05-07T00:13:56.845Z,1.53
2019-05-07T00:16:27.238Z,1.40
2019-05-07T00:18:57.598Z,3.23
2019-05-07T00:21:28.009Z,1.70
2019-05-07T00:23:58.925Z,1.60
2019-05-07T00:26:29.342Z,2.00
2019-05-07T00:29:02.159Z,1.43
2019-05-07T00:31:32.596Z,1.10
2019-05-07T00:34:03.250Z,1.83
2019-05-07T00:36:42.239Z,2.03
2019-05-07T00:39:43.787Z,2.00
2019-05-07T00:42:21.803Z,1.93
2019-05-07T00:45:17.161Z,1.80
2019-05-07T00:47:42.574Z,2.10
2019-05-07T00:50:19.378Z,1.50
2019-05-07T00:52:49.533Z,1.70
2019-05-07T00:55:19.646Z,2.20
2019-05-07T00:57:52.496Z,1.73
2019-05-07T01:00:30.280Z,2.37
2019-05-07T01:03:03.073Z,1.83
2019-05-07T01:05:43.339Z,1.90
2019-05-07T01:08:13.747Z,2.33
2019-05-07T01:10:43.829Z,1.50
2019-05-07T01:13:13.979Z,2.40
2019-05-07T01:15:44.166Z,2.10
2019-05-07T01:18:14.233Z,2.20
2019-05-07T01:20:44.522Z,2.50
2019-05-07T01:23:14.930Z,1.60
2019-05-07T01:25:49.410Z,2.00
2019-05-07T01:28:22.181Z,2.40
2019-05-07T01:30:52.974Z,2.33
2019-05-07T01:33:30.750Z,2.80
2019-05-07T01:36:22.469Z,3.50
2019-05-07T01:38:52.432Z,2.70
2019-05-07T01:41:23.223Z,1.93
2019-05-07T01:43:53.598Z,2.30
2019-05-07T01:46:24.792Z,2.57
2019-05-07T01:48:57.467Z,2.93
2019-05-07T01:51:32.483Z,2.53
2019-05-07T01:54:02.382Z,2.90
2019-05-07T01:56:34.626Z,3.30
2019-05-07T01:59:05.139Z,2.80
2019-05-07T02:01:35.905Z,2.90
2019-05-07T02:04:22.407Z,2.80
2019-05-07T02:07:27.845Z,4.33
2019-05-07T02:10:02.782Z,3.23
2019-05-07T02:12:35.921Z,3.23
2019-05-07T02:15:08.198Z,3.40
2019-05-07T02:17:38.754Z,3.47
2019-05-07T02:20:27.780Z,3.40
2019-05-07T02:22:58.365Z,3.40
2019-05-07T02:25:32.537Z,3.87
2019-05-07T02:28:02.695Z,4.03
2019-05-07T02:30:35.110Z,3.13
2019-05-07T02:33:05.055Z,3.73
2019-05-07T02:35:36.121Z,3.67
2019-05-07T02:38:15.091Z,3.53
2019-05-07T02:40:53.403Z,3.00
2019-05-07T02:43:24.090Z,2.90
2019-05-07T02:46:21.575Z,3.10
2019-05-07T02:48:46.428Z,3.60
2019-05-07T02:51:23.951Z,3.33
2019-05-07T02:54:03.720Z,4.20
2019-05-07T02:56:35.055Z,3.90
2019-05-07T02:59:05.487Z,3.60
2019-05-07T03:01:35.919Z,3.67
2019-05-07T03:04:07.978Z,3.67
2019-05-07T03:06:38.883Z,4.10
2019-05-07T03:09:14.113Z,4.20
2019-05-07T03:11:43.625Z,4.47
2019-05-07T03:14:16.496Z,3.50
2019-05-07T03:16:49.447Z,4.37
2019-05-07T03:19:28.034Z,2.93
2019-05-07T03:21:58.119Z,3.70
2019-05-07T03:24:37.089Z,3.50
2019-05-07T03:27:08.891Z,3.77
2019-05-07T03:30:04.288Z,4.40
2019-05-07T03:32:40.946Z,3.83
2019-05-07T03:35:19.977Z,3.37
2019-05-07T03:37:50.488Z,4.27
2019-05-07T03:40:23.031Z,3.57
2019-05-07T03:42:53.771Z,4.07
2019-05-07T03:45:54.550Z,4.40
2019-05-07T03:48:26.338Z,3.63
2019-05-07T03:50:56.670Z,3.20
2019-05-07T03:53:27.006Z,4.47
2019-05-07T03:55:57.165Z,4.30
2019-05-07T03:58:42.854Z,4.00
2019-05-07T04:01:13.573Z,4.50
2019-05-07T04:03:44.842Z,3.50
2019-05-07T04:06:16.793Z,4.30
2019-05-07T04:08:46.933Z,3.67
2019-05-07T04:11:22.977Z,3.97
2019-05-07T04:13:53.774Z,4.50
2019-05-07T04:16:24.217Z,4.27
2019-05-07T04:18:55.265Z,4.47
2019-05-07T04:21:25.475Z,4.37
2019-05-07T04:24:13.830Z,5.27
2019-05-07T04:26:48.271Z,3.50
2019-05-07T04:29:18.502Z,5.10
2019-05-07T04:31:48.969Z,4.60
2019-05-07T04:34:24.715Z,5.70
2019-05-07T04:36:55.717Z,4.90
2019-05-07T04:39:26.251Z,4.13
2019-05-07T04:41:56.915Z,5.00
2019-05-07T04:44:27.219Z,5.10
2019-05-07T04:46:58.091Z,4.73
2019-05-07T04:49:28.424Z,4.07
2019-05-07T04:52:05.092Z,5.80
2019-05-07T04:54:37.580Z,6.23
2019-05-07T04:57:25.738Z,5.20
2019-05-07T04:59:57.318Z,5.10
2019-05-07T05:02:53.201Z,5.50
2019-05-07T05:05:24.279Z,5.40
2019-05-07T05:07:56.052Z,5.27
2019-05-07T05:10:26.918Z,5.70
2019-05-07T05:12:57.343Z,6.20
2019-05-07T05:15:28.914Z,6.30
2019-05-07T05:18:02.421Z,5.40
2019-05-07T05:21:17.859Z,5.80
2019-05-07T05:23:53.270Z,5.60
2019-05-07T05:26:23.367Z,4.63
2019-05-07T05:28:53.538Z,4.77
2019-05-07T05:31:23.786Z,4.67
2019-05-07T05:33:58.863Z,5.30
2019-05-07T05:36:29.602Z,4.97
2019-05-07T05:39:02.331Z,4.90
2019-05-07T05:41:35.183Z,4.33
2019-05-07T05:44:11.779Z,4.50
2019-05-07T05:46:42.843Z,5.07
2019-05-07T05:49:13.300Z,3.93
2019-05-07T05:51:49.667Z,4.73
2019-05-07T05:54:32.094Z,4.17
2019-05-07T05:57:14.046Z,4.17
2019-05-07T05:59:57.691Z,4.70
2019-05-07T06:02:39.782Z,5.00
2019-05-07T06:05:34.428Z,4.57
2019-05-07T06:08:32.310Z,5.43
2019-05-07T06:11:24.077Z,4.60
2019-05-07T06:14:26.622Z,4.00
2019-05-07T06:17:06.180Z,4.87
2019-05-07T06:19:48.671Z,6.17
2019-05-07T06:22:42.466Z,4.00
2019-05-07T06:25:24.606Z,4.13
2019-05-07T06:27:52.977Z,4.80
2019-05-07T06:30:23.125Z,4.00
2019-05-07T06:32:53.453Z,3.60
2019-05-07T06:35:26.066Z,4.43
2019-05-07T06:37:56.118Z,3.00
2019-05-07T06:40:33.530Z,4.03
2019-05-07T06:43:12.395Z,2.17
2019-05-07T06:45:46.526Z,3.33
2019-05-07T06:48:33.551Z,2.80
2019-05-07T06:51:08.370Z,2.40
2019-05-07T06:53:39.034Z,2.53
2019-05-07T06:56:11.693Z,1.70
2019-05-07T06:58:49.282Z,1.70
2019-05-07T07:01:54.813Z,2.30
2019-05-07T07:04:33.144Z,1.40
2019-05-07T07:07:33.932Z,3.00
2019-05-07T07:10:27.756Z,1.40
2019-05-07T07:12:58.099Z,3.20
2019-05-07T07:15:28.323Z,3.13
2019-05-07T07:17:58.517Z,1.70
2019-05-07T07:20:28.658Z,1.90
2019-05-07T07:22:58.726Z,1.37
2019-05-07T07:25:28.793Z,2.70
2019-05-07T07:27:58.860Z,1.00
2019-05-07T07:30:47.617Z,0.90
2019-05-07T07:33:18.823Z,1.40
2019-05-07T07:35:51.924Z,1.03
2019-05-07T07:38:36.139Z,1.37
2019-05-07T07:41:33.512Z,1.23
2019-05-07T07:44:03.998Z,0.80
2019-05-07T07:46:34.143Z,1.27
2019-05-07T07:49:11.062Z,1.47
2019-05-07T07:51:41.541Z,1.20
2019-05-07T07:54:08.624Z,0.90
2019-05-07T07:56:56.916Z,2.07
2019-05-07T07:59:41.976Z,0.90
2019-05-07T08:02:26.285Z,1.13
2019-05-07T08:04:58.369Z,1.27
2019-05-07T08:07:28.454Z,1.57
2019-05-07T08:09:58.557Z,1.10
2019-05-07T08:12:32.354Z,1.00
2019-05-07T08:15:14.703Z,1.57
2019-05-07T08:17:33.762Z,1.20
2019-05-07T08:20:08.138Z,1.20
2019-05-07T08:22:59.254Z,1.17
2019-05-07T08:25:47.624Z,1.00
2019-05-07T08:28:23.243Z,1.20
2019-05-07T08:31:12.069Z,1.13
2019-05-07T08:33:51.835Z,1.50
2019-05-07T08:36:22.699Z,0.70
2019-05-07T08:38:53.972Z,0.70
2019-05-07T08:41:28.227Z,0.60
2019-05-07T08:44:17.519Z,1.87
2019-05-07T08:47:05.483Z,0.70
2019-05-07T08:49:39.898Z,1.43
2019-05-07T08:52:12.054Z,1.43
2019-05-07T08:54:42.822Z,0.87
2019-05-07T08:57:13.373Z,1.57
2019-05-07T08:59:57.590Z,1.00
2019-05-07T09:02:15.783Z,0.90
2019-05-07T09:04:52.614Z,0.93
2019-05-07T09:07:23.417Z,0.80
2019-05-07T09:09:53.743Z,0.60
2019-05-07T09:12:23.870Z,0.70
2019-05-07T09:14:54.370Z,0.90
2019-05-07T09:17:24.680Z,1.00
2019-05-07T09:19:55.242Z,0.80
2019-05-07T09:22:25.570Z,0.73
2019-05-07T09:24:55.966Z,1.53
2019-05-07T09:27:32.891Z,1.70
2019-05-07T09:30:16.121Z,0.70
2019-05-07T09:32:52.164Z,1.27
2019-05-07T09:35:26.278Z,0.63
2019-05-07T09:37:56.581Z,0.90
2019-05-07T09:40:26.660Z,0.70
2019-05-07T09:43:08.452Z,0.80
2019-05-07T09:45:38.757Z,1.20
2019-05-07T09:48:08.850Z,0.60
2019-05-07T09:50:39.479Z,0.80
2019-05-07T09:53:09.834Z,0.60
2019-05-07T09:55:39.918Z,0.80
2019-05-07T09:58:12.349Z,0.70
2019-05-07T10:00:42.735Z,0.80
2019-05-07T10:03:13.105Z,0.87
2019-05-07T10:05:43.203Z,0.80
2019-05-07T10:08:13.529Z,0.83
2019-05-07T10:10:45.036Z,0.50
2019-05-07T10:13:34.401Z,0.60
2019-05-07T10:16:07.667Z,0.97
2019-05-07T10:18:37.758Z,0.60
2019-05-07T10:21:08.225Z,0.67
2019-05-07T10:23:41.581Z,0.60
2019-05-07T10:26:12.205Z,0.90
2019-05-07T10:28:42.568Z,0.80
2019-05-07T10:31:13.187Z,0.70
2019-05-07T10:33:44.054Z,0.70
2019-05-07T10:36:14.902Z,0.60
2019-05-07T10:38:45.815Z,0.77
2019-05-07T10:41:17.330Z,0.70
2019-05-07T10:43:47.749Z,0.90
2019-05-07T10:46:29.397Z,1.30
2019-05-07T10:49:19.230Z,0.70
2019-05-07T10:51:51.684Z,0.73
2019-05-07T10:54:21.864Z,0.73
2019-05-07T10:56:52.517Z,0.83
2019-05-07T10:59:22.765Z,0.60
2019-05-07T11:01:59.306Z,0.70
2019-05-07T11:04:40.156Z,0.60
2019-05-07T11:07:01.876Z,0.80
2019-05-07T11:09:32.812Z,0.90
2019-05-07T11:12:03.374Z,0.60
2019-05-07T11:14:33.604Z,0.63
2019-05-07T11:17:22.400Z,0.70
2019-05-07T11:19:52.614Z,1.10
2019-05-07T11:22:22.814Z,0.60
2019-05-07T11:25:03.340Z,0.70
2019-05-07T11:27:34.203Z,0.80
2019-05-07T11:30:05.094Z,1.20
2019-05-07T11:32:38.481Z,1.60
2019-05-07T11:35:09.119Z,0.67
2019-05-07T11:37:39.552Z,1.00
2019-05-07T11:40:10.491Z,0.70
2019-05-07T11:43:02.540Z,0.70
2019-05-07T11:45:40.228Z,1.07
2019-05-07T11:48:13.103Z,0.50
2019-05-07T11:51:04.380Z,0.67
2019-05-07T11:53:34.721Z,0.60
2019-05-07T11:56:05.710Z,0.70
2019-05-07T11:58:36.459Z,0.50
2019-05-07T12:01:14.458Z,0.77
2019-05-07T12:03:44.619Z,0.50
2019-05-07T12:06:15.079Z,0.60
2019-05-07T12:08:51.658Z,0.70
2019-05-07T12:11:17.258Z,0.50
2019-05-07T12:13:48.142Z,0.50
2019-05-07T12:16:18.776Z,1.07
2019-05-07T12:18:49.350Z,1.20
2019-05-07T12:21:23.593Z,0.63
2019-05-07T12:23:52.626Z,0.50
2019-05-07T12:26:22.802Z,0.80
2019-05-07T12:28:53.198Z,1.00
2019-05-07T12:31:36.054Z,0.90
2019-05-07T12:34:11.812Z,0.80
2019-05-07T12:36:42.189Z,0.60
2019-05-07T12:39:13.411Z,0.60
2019-05-07T12:41:43.918Z,1.20
2019-05-07T12:44:14.258Z,1.03
2019-05-07T12:46:44.721Z,0.63
2019-05-07T12:49:17.553Z,1.10
2019-05-07T12:51:56.960Z,0.60
2019-05-07T12:54:38.437Z,0.63
2019-05-07T12:57:08.798Z,0.60
2019-05-07T12:59:38.917Z,0.70
2019-05-07T13:02:38.061Z,0.70
2019-05-07T13:05:03.435Z,0.67
2019-05-07T13:07:47.621Z,0.93
2019-05-07T13:10:17.800Z,1.00
2019-05-07T13:12:48.088Z,0.60
2019-05-07T13:15:25.123Z,3.17
2019-05-07T13:17:51.960Z,0.90
2019-05-07T13:20:22.748Z,0.60
2019-05-07T13:22:52.910Z,0.53
2019-05-07T13:25:28.155Z,0.60
2019-05-07T13:27:55.354Z,0.70
2019-05-07T13:30:25.860Z,1.67
2019-05-07T13:32:57.087Z,1.87
2019-05-07T13:35:27.659Z,0.83
2019-05-07T13:38:26.419Z,0.60
2019-05-07T13:41:14.367Z,1.27
2019-05-07T13:44:15.954Z,0.60
2019-05-07T13:46:47.991Z,0.93
2019-05-07T13:49:18.334Z,0.70
2019-05-07T13:52:02.527Z,0.60
2019-05-07T13:54:21.801Z,0.90
2019-05-07T13:56:52.686Z,0.63
2019-05-07T13:59:23.089Z,0.80
2019-05-07T14:02:06.531Z,0.60
2019-05-07T14:04:37.744Z,0.70
2019-05-07T14:07:08.867Z,0.70
2019-05-07T14:09:41.873Z,0.53
2019-05-07T14:12:12.285Z,0.60
2019-05-07T14:14:43.201Z,0.90
2019-05-07T14:17:13.561Z,1.30
2019-05-07T14:19:44.674Z,0.70
2019-05-07T14:22:19.011Z,1.20
2019-05-07T14:24:48.838Z,0.50
2019-05-07T14:27:19.261Z,0.60
2019-05-07T14:29:51.985Z,0.60
2019-05-07T14:32:31.166Z,0.60
2019-05-07T14:35:12.322Z,0.80
2019-05-07T14:37:45.893Z,1.23
2019-05-07T14:40:16.415Z,0.57
2019-05-07T14:42:52.521Z,0.80
2019-05-07T14:45:23.808Z,0.70
2019-05-07T14:47:54.481Z,0.50
2019-05-07T14:50:24.982Z,1.03
2019-05-07T14:52:55.418Z,1.20
2019-05-07T14:55:26.486Z,0.97
2019-05-07T14:57:57.984Z,1.30
2019-05-07T15:00:28.054Z,1.00
2019-05-07T15:02:58.484Z,0.70
2019-05-07T15:05:28.744Z,0.80
2019-05-07T15:08:08.442Z,0.63
2019-05-07T15:10:32.573Z,0.60
2019-05-07T15:13:03.317Z,0.80
2019-05-07T15:15:33.638Z,0.70
2019-05-07T15:18:19.138Z,0.70
2019-05-07T15:20:49.453Z,0.80
2019-05-07T15:23:28.635Z,0.70
2019-05-07T15:26:01.736Z,0.70
2019-05-07T15:28:52.144Z,0.50
2019-05-07T15:31:42.877Z,0.60
2019-05-07T15:34:13.405Z,0.70
2019-05-07T15:36:44.217Z,0.70
2019-05-07T15:39:14.557Z,0.60
2019-05-07T15:41:53.096Z,0.57
2019-05-07T15:44:23.771Z,0.80
2019-05-07T15:47:04.324Z,1.03
2019-05-07T15:49:34.437Z,0.70
2019-05-07T15:52:08.469Z,0.80
2019-05-07T15:54:43.138Z,0.60
2019-05-07T15:57:16.505Z,0.60
2019-05-07T15:59:48.718Z,1.63
2019-05-07T16:02:33.725Z,0.70
2019-05-07T16:05:05.076Z,0.90
2019-05-07T16:07:36.510Z,0.60
2019-05-07T16:10:07.314Z,0.60
2019-05-07T16:12:48.234Z,0.73
2019-05-07T16:15:22.515Z,0.90
2019-05-07T16:17:58.254Z,0.50
2019-05-07T16:20:29.038Z,0.60
2019-05-07T16:23:14.375Z,0.67
2019-05-07T16:25:34.837Z,0.70
2019-05-07T16:28:05.390Z,0.60
2019-05-07T16:30:35.699Z,0.60
2019-05-07T16:33:12.603Z,0.60
2019-05-07T16:35:43.430Z,0.57
2019-05-07T16:38:15.608Z,0.40
2019-05-07T16:40:45.773Z,0.70
2019-05-07T16:43:16.104Z,0.50
2019-05-07T16:45:46.717Z,0.60
2019-05-07T16:48:17.270Z,0.60
2019-05-07T16:50:47.598Z,1.37
2019-05-07T16:53:27.535Z,0.67
2019-05-07T16:55:52.246Z,0.60
2019-05-07T16:58:45.083Z,0.60
2019-05-07T17:01:22.249Z,0.50
2019-05-07T17:03:56.156Z,0.60
2019-05-07T17:06:32.905Z,0.70
2019-05-07T17:09:10.214Z,0.70
2019-05-07T17:11:40.777Z,0.60
2019-05-07T17:14:12.911Z,0.60
2019-05-07T17:16:58.269Z,0.60
2019-05-07T17:19:28.827Z,0.90
2019-05-07T17:21:59.630Z,0.83
2019-05-07T17:24:32.970Z,0.63
2019-05-07T17:27:04.545Z,0.60
2019-05-07T17:29:34.674Z,0.90
2019-05-07T17:32:05.065Z,0.50
2019-05-07T17:34:35.125Z,0.77
2019-05-07T17:37:17.381Z,0.50
2019-05-07T17:39:47.420Z,0.60
2019-05-07T17:42:17.486Z,0.63
2019-05-07T17:44:48.033Z,0.90
2019-05-07T17:47:32.050Z,0.70
2019-05-07T17:50:03.164Z,1.37
2019-05-07T17:52:33.966Z,0.97
2019-05-07T17:55:04.774Z,0.60
2019-05-07T17:57:35.082Z,0.63
2019-05-07T18:00:05.973Z,1.20
2019-05-07T18:03:08.805Z,0.80
2019-05-07T18:05:39.302Z,0.60
2019-05-07T18:08:09.801Z,0.73
2019-05-07T18:10:47.743Z,0.80
2019-05-07T18:13:19.132Z,0.70
2019-05-07T18:15:49.440Z,0.70
2019-05-07T18:18:22.107Z,0.80
2019-05-07T18:20:52.514Z,0.60
2019-05-07T18:23:24.817Z,1.53
2019-05-07T18:25:56.858Z,1.40
2019-05-07T18:28:32.347Z,1.10
2019-05-07T18:31:44.787Z,1.60
2019-05-07T18:34:15.361Z,1.53
2019-05-07T18:36:45.964Z,1.00
2019-05-07T18:39:16.355Z,1.77
2019-05-07T18:41:47.240Z,1.00
2019-05-07T18:44:17.295Z,0.80
2019-05-07T18:46:47.349Z,1.23
2019-05-07T18:49:17.898Z,1.20
2019-05-07T18:51:52.553Z,0.90
2019-05-07T18:54:30.335Z,1.00
2019-05-07T18:56:54.854Z,0.70
2019-05-07T18:59:26.608Z,0.60
2019-05-07T19:02:06.773Z,1.23
2019-05-07T19:04:36.837Z,0.80
2019-05-07T19:07:08.351Z,1.93
2019-05-07T19:09:38.394Z,0.90
2019-05-07T19:12:16.221Z,1.77
2019-05-07T19:14:46.586Z,1.00
2019-05-07T19:17:17.381Z,2.30
2019-05-07T19:19:47.433Z,0.80
2019-05-07T19:22:22.253Z,0.87
2019-05-07T19:24:52.829Z,0.97
2019-05-07T19:27:28.434Z,0.70
2019-05-07T19:29:59.282Z,0.77
2019-05-07T19:32:32.665Z,0.90
2019-05-07T19:35:12.405Z,0.90
2019-05-07T19:37:43.114Z,0.90
2019-05-07T19:40:13.962Z,0.87
2019-05-07T19:42:48.370Z,0.80
2019-05-07T19:45:21.676Z,1.47
2019-05-07T19:47:52.757Z,0.70
2019-05-07T19:50:23.429Z,0.60
2019-05-07T19:53:09.402Z,1.20
2019-05-07T19:55:57.644Z,1.37
2019-05-07T19:58:28.377Z,0.83
2019-05-07T20:01:00.982Z,0.80
2019-05-07T20:03:32.718Z,1.00
2019-05-07T20:06:02.998Z,0.77
2019-05-07T20:08:33.347Z,1.13
2019-05-07T20:11:11.946Z,0.73
2019-05-07T20:13:43.770Z,0.70
2019-05-07T20:16:17.858Z,0.70
2019-05-07T20:18:52.621Z,0.80
2019-05-07T20:21:23.136Z,1.03
2019-05-07T20:23:53.196Z,1.77
2019-05-07T20:26:23.427Z,1.10
2019-05-07T20:28:53.602Z,1.83
2019-05-07T20:31:24.601Z,1.03
2019-05-07T20:33:55.876Z,1.13
2019-05-07T20:36:32.913Z,1.10
2019-05-07T20:39:04.788Z,0.97
2019-05-07T20:41:37.163Z,1.50
2019-05-07T20:44:17.269Z,1.20
2019-05-07T20:46:47.607Z,0.90
2019-05-07T20:49:17.967Z,1.00
2019-05-07T20:51:48.106Z,1.30
2019-05-07T20:54:32.642Z,0.93
2019-05-07T20:57:15.326Z,1.20
2019-05-07T20:59:46.125Z,1.33
2019-05-07T21:02:17.580Z,1.97
2019-05-07T21:04:47.756Z,1.40
2019-05-07T21:07:22.236Z,1.23
2019-05-07T21:09:53.114Z,1.30
2019-05-07T21:12:23.388Z,1.30
2019-05-07T21:14:54.823Z,1.73
2019-05-07T21:17:24.934Z,2.90
2019-05-07T21:19:55.383Z,4.40
2019-05-07T21:22:28.230Z,2.17
2019-05-07T21:25:02.709Z,1.00
2019-05-07T21:27:33.626Z,2.03
2019-05-07T21:30:04.286Z,2.77
2019-05-07T21:32:36.429Z,1.60
2019-05-07T21:35:29.109Z,1.10
2019-05-07T21:37:59.835Z,1.40
2019-05-07T21:40:31.948Z,4.33
2019-05-07T21:43:02.209Z,1.30
2019-05-07T21:45:32.726Z,1.47
2019-05-07T21:48:03.180Z,1.00
2019-05-07T21:50:33.422Z,1.10
2019-05-07T21:53:09.289Z,0.93
2019-05-07T21:55:58.849Z,1.60
2019-05-07T21:58:34.478Z,1.40
2019-05-07T22:01:28.623Z,1.60
2019-05-07T22:04:01.890Z,1.20
2019-05-07T22:06:38.366Z,1.23
2019-05-07T22:09:09.966Z,1.40
2019-05-07T22:11:42.757Z,1.87
2019-05-07T22:14:13.034Z,1.40
2019-05-07T22:17:05.550Z,1.20
2019-05-07T22:19:35.945Z,1.00
2019-05-07T22:22:06.330Z,1.00
2019-05-07T22:24:36.845Z,0.90
2019-05-07T22:27:07.241Z,1.00
2019-05-07T22:29:37.303Z,1.10
2019-05-07T22:32:18.629Z,0.90
2019-05-07T22:35:12.057Z,1.00
2019-05-07T22:37:44.307Z,0.83
2019-05-07T22:40:22.648Z,1.03
2019-05-07T22:42:54.847Z,1.00
2019-05-07T22:45:38.253Z,1.00
2019-05-07T22:48:20.216Z,1.10
2019-05-07T22:51:03.006Z,1.10
2019-05-07T22:53:45.613Z,1.27
2019-05-07T22:56:46.376Z,0.80
2019-05-07T22:59:28.687Z,1.53
2019-05-07T23:02:12.215Z,1.40
2019-05-07T23:04:54.634Z,1.30
2019-05-07T23:07:36.326Z,0.80
2019-05-07T23:10:19.370Z,1.20
2019-05-07T23:13:02.423Z,1.30
2019-05-07T23:15:45.100Z,1.20
2019-05-07T23:18:27.002Z,1.20
2019-05-07T23:21:09.841Z,1.50
2019-05-07T23:23:52.755Z,1.20
2019-05-07T23:26:47.444Z,1.53
2019-05-07T23:29:19.444Z,1.20
2019-05-07T23:32:02.163Z,1.87
2019-05-07T23:34:44.486Z,1.77
2019-05-07T23:37:27.316Z,1.40
2019-05-07T23:40:16.258Z,1.77
2019-05-07T23:43:02.875Z,2.07
2019-05-07T23:45:45.113Z,1.50
2019-05-07T23:48:27.662Z,2.03
2019-05-07T23:51:12.485Z,1.30
2019-05-07T23:53:54.798Z,1.73
2019-05-07T23:56:37.170Z,1.60
2019-05-07T23:59:22.083Z,1.70
